Arlington Heights, Ohio
Current Conditions -  °F | °C
As of 3:53 AM on Friday 28 Nov 2014 (Local Time) from KHAO Reporting Station
Overcast Overcast  
Wind Chill: 25°   Ceiling: 4200
Heat Index: 25°   Visibility: 10mi
Dew Point: 19°   Wind: 0mph
Humidity: 78%   Direction: NA
Pressure: 30.4"   Gusts: NA
Location:  39.236°N, 84.4599°W
Report Text: KHAO 280853Z AUTO 00000KT 10SM OVC042 M04/M07 A3040 RMK AO2 SNE02 SLP303 P0000 60000 T10391072 56003
Loading
Personal Weather Stations






























Interactive Weather Map New forecast layout! Learn more

10-Day Weather Forecast

Advertisements
Track Severe Weather on mobile